Aérodrome :
LOGIN :

S'inscrire | Disclaimer

   EN    FR    IT 

 










Légende :    VFR   VFR Marginal   IFR   IFR Intensif   IFR Très Intensif
Visi : 
Plafond : 
>= 8 km
>= 3000ft
5 à 8 km
1000 à 3000 ft
1500m à 5 km
500 à 1000 ft
800 à 1500m
200 à 500 ft
< 800m
< 200 ft
Symboles :   Orages  Brouillard  Fortes neiges  Fortes précipitations  Vent > 20 kt
SIGMETs :   Divers  Orages  Givrage  Turbulence  Onde Orograph.  Cendres Volcan.







- Altitude de l'aérodrome : 779 ft
- Code IATA : CMF
- Voir les cartes d'approche


LFLB - Chambery / Aix-Les-Bains

DERNIER METAR :
  • 152300Z AUTO 13009KT 6000 -RA BKN048 OVC058 02/M00 Q1019

METARs EXPIRÉS :
  • 152230Z AUTO 16010KT 7000 -RA FEW038 BKN058 BKN072 02/M00 Q1019
  • 152200Z AUTO 18006KT 6000 -RA FEW037 SCT056 OVC074 02/M01 Q1019 TEMPO 4000 -RA BKN014
  • 152130Z AUTO 22004KT 6000 -RA FEW025 SCT041 BKN048 03/M02 Q1019 TEMPO 4000 -RA BKN014
  • 152100Z AUTO 18004KT 9999 BKN060 OVC070 03/M02 Q1019 TEMPO 4000 -RA BKN014

TAF TAF LFLB
Valide du 15 à 18h jusqu'au 16 à 18h UTC


151700Z 1518/1618 VRB03KT 8000 NSC
BECMG 1518/1521 18008KT 9999 BKN040
TEMPO 1520/1524 4000 -RA BKN014
TEMPO 1600/1612 2000 RA BKN009
PROB40
TEMPO 1612/1618 4000 -RA BKN020
Pas de NOTAMs connus pour ce terrain.



MET'MAP, la Météo Aéronautique d'un coup d'oeil ! - Copyright ORBIFLY Décembre 2007 - Disclaimer

ORBIFLY MET'MAP TEAM :

Programmation & Développement : Alexandra Zaïnal
Conception & Développement : Baudouin d'Aumeries
Co-Programmation & Développement : Marc-Olivier Méhu
Soutien technique & logistique : Manuel Goepfert

Contact : metmap@orbifly.com




SOURCES & CREDITS :

   NOAA